Miller, Iowa
Current Conditions -  °F | °C
As of 7:55 PM on Saturday 22 Nov 2014 (Local Time) from KFXY Reporting Station
Haze Haze  
Wind Chill: 36°   Ceiling: 1600
Heat Index: 41°   Visibility: 5mi
Dew Point: 41°   Wind: 8mph
Humidity: 100%   Direction: 170°S
Pressure: 29.6"   Gusts: NA
Location:  43.1609°N, 93.5546°W
Report Text: KFXY 230155Z AUTO 17007KT 5SM BR OVC016 05/05 A2960 RMK AO2
Loading
Personal Weather Stations






























Interactive Weather Map New forecast layout! Learn more

10-Day Weather Forecast

Advertisements
Track Severe Weather on mobile